sensor_id;sensor_type;location;lat;lon;timestamp;P1;durP1;ratioP1;P2;durP2;ratioP2
21955;SDS011;11142;49.930;8.606;2023-10-09T00:00:14;12.85;;;5.40;;
21955;SDS011;11142;49.930;8.606;2023-10-09T00:03:02;9.50;;;5.22;;
21955;SDS011;11142;49.930;8.606;2023-10-09T00:05:31;12.27;;;4.97;;
21955;SDS011;11142;49.930;8.606;2023-10-09T00:08:15;9.73;;;5.03;;
21955;SDS011;11142;49.930;8.606;2023-10-09T00:10:50;13.60;;;5.28;;
21955;SDS011;11142;49.930;8.606;2023-10-09T00:13:22;9.82;;;4.78;;
21955;SDS011;11142;49.930;8.606;2023-10-09T00:15:55;10.75;;;5.38;;
21955;SDS011;11142;49.930;8.606;2023-10-09T00:18:27;9.27;;;5.23;;
21955;SDS011;11142;49.930;8.606;2023-10-09T00:21:01;9.85;;;4.68;;
21955;SDS011;11142;49.930;8.606;2023-10-09T00:23:39;10.23;;;4.45;;
21955;SDS011;11142;49.930;8.606;2023-10-09T00:26:08;13.60;;;4.55;;
21955;SDS011;11142;49.930;8.606;2023-10-09T00:28:47;9.90;;;4.78;;
21955;SDS011;11142;49.930;8.606;2023-10-09T00:31:18;8.38;;;5.07;;
21955;SDS011;11142;49.930;8.606;2023-10-09T00:33:56;9.50;;;4.80;;
21955;SDS011;11142;49.930;8.606;2023-10-09T00:36:30;7.80;;;4.55;;
21955;SDS011;11142;49.930;8.606;2023-10-09T00:38:59;6.88;;;4.32;;
21955;SDS011;11142;49.930;8.606;2023-10-09T00:41:37;7.93;;;4.82;;
21955;SDS011;11142;49.930;8.606;2023-10-09T00:44:09;8.35;;;4.85;;
21955;SDS011;11142;49.930;8.606;2023-10-09T00:46:39;14.50;;;5.78;;
21955;SDS011;11142;49.930;8.606;2023-10-09T00:49:09;7.97;;;5.40;;
21955;SDS011;11142;49.930;8.606;2023-10-09T00:51:40;11.90;;;5.30;;
21955;SDS011;11142;49.930;8.606;2023-10-09T00:54:23;14.77;;;5.10;;
21955;SDS011;11142;49.930;8.606;2023-10-09T00:57:02;11.25;;;5.10;;
21955;SDS011;11142;49.930;8.606;2023-10-09T00:59:35;7.68;;;4.43;;
21955;SDS011;11142;49.930;8.606;2023-10-09T01:02:05;7.18;;;4.65;;
21955;SDS011;11142;49.930;8.606;2023-10-09T01:04:34;11.60;;;5.40;;
21955;SDS011;11142;49.930;8.606;2023-10-09T01:07:07;12.73;;;5.18;;
21955;SDS011;11142;49.930;8.606;2023-10-09T01:09:37;11.77;;;5.05;;
21955;SDS011;11142;49.930;8.606;2023-10-09T01:12:09;11.85;;;5.05;;
21955;SDS011;11142;49.930;8.606;2023-10-09T01:14:45;11.98;;;4.85;;
21955;SDS011;11142;49.930;8.606;2023-10-09T01:17:19;8.05;;;4.80;;
21955;SDS011;11142;49.930;8.606;2023-10-09T01:20:03;7.47;;;4.50;;
21955;SDS011;11142;49.930;8.606;2023-10-09T01:22:41;10.52;;;4.85;;
21955;SDS011;11142;49.930;8.606;2023-10-09T01:25:11;12.10;;;5.20;;
21955;SDS011;11142;49.930;8.606;2023-10-09T01:27:39;10.02;;;4.70;;
21955;SDS011;11142;49.930;8.606;2023-10-09T01:30:11;9.23;;;4.38;;
21955;SDS011;11142;49.930;8.606;2023-10-09T01:32:40;9.98;;;4.68;;
21955;SDS011;11142;49.930;8.606;2023-10-09T01:35:10;12.93;;;5.22;;
21955;SDS011;11142;49.930;8.606;2023-10-09T01:37:47;10.75;;;5.68;;
21955;SDS011;11142;49.930;8.606;2023-10-09T01:40:19;11.07;;;5.53;;
21955;SDS011;11142;49.930;8.606;2023-10-09T01:43:03;13.55;;;5.80;;
21955;SDS011;11142;49.930;8.606;2023-10-09T01:45:32;12.25;;;5.38;;
21955;SDS011;11142;49.930;8.606;2023-10-09T01:48:09;10.50;;;5.35;;
21955;SDS011;11142;49.930;8.606;2023-10-09T01:50:39;8.20;;;5.10;;
21955;SDS011;11142;49.930;8.606;2023-10-09T01:53:08;12.13;;;5.70;;
21955;SDS011;11142;49.930;8.606;2023-10-09T01:55:45;9.95;;;5.50;;
21955;SDS011;11142;49.930;8.606;2023-10-09T01:58:13;14.82;;;5.20;;
21955;SDS011;11142;49.930;8.606;2023-10-09T02:00:51;15.60;;;5.28;;
21955;SDS011;11142;49.930;8.606;2023-10-09T02:03:22;17.70;;;6.25;;
21955;SDS011;11142;49.930;8.606;2023-10-09T02:05:52;15.10;;;5.82;;
21955;SDS011;11142;49.930;8.606;2023-10-09T02:08:26;12.60;;;5.35;;
21955;SDS011;11142;49.930;8.606;2023-10-09T02:10:57;13.73;;;6.20;;
21955;SDS011;11142;49.930;8.606;2023-10-09T02:13:26;12.38;;;6.07;;
21955;SDS011;11142;49.930;8.606;2023-10-09T02:15:58;7.13;;;4.07;;
21955;SDS011;11142;49.930;8.606;2023-10-09T02:18:40;11.25;;;5.57;;
21955;SDS011;11142;49.930;8.606;2023-10-09T02:21:20;14.65;;;5.60;;
21955;SDS011;11142;49.930;8.606;2023-10-09T02:24:01;10.23;;;5.60;;
21955;SDS011;11142;49.930;8.606;2023-10-09T02:26:37;10.38;;;5.65;;
21955;SDS011;11142;49.930;8.606;2023-10-09T02:29:33;14.65;;;5.90;;
21955;SDS011;11142;49.930;8.606;2023-10-09T02:32:05;15.13;;;6.68;;
21955;SDS011;11142;49.930;8.606;2023-10-09T02:34:41;11.30;;;6.07;;
21955;SDS011;11142;49.930;8.606;2023-10-09T02:37:13;18.15;;;5.93;;
21955;SDS011;11142;49.930;8.606;2023-10-09T02:39:42;20.73;;;5.72;;
21955;SDS011;11142;49.930;8.606;2023-10-09T02:42:16;12.52;;;5.82;;
21955;SDS011;11142;49.930;8.606;2023-10-09T02:44:50;17.48;;;6.05;;
21955;SDS011;11142;49.930;8.606;2023-10-09T02:47:19;13.95;;;6.07;;
21955;SDS011;11142;49.930;8.606;2023-10-09T02:49:51;10.80;;;5.65;;
21955;SDS011;11142;49.930;8.606;2023-10-09T02:52:27;14.05;;;6.85;;
21955;SDS011;11142;49.930;8.606;2023-10-09T02:55:00;12.55;;;6.60;;
21955;SDS011;11142;49.930;8.606;2023-10-09T02:57:36;11.70;;;5.90;;
21955;SDS011;11142;49.930;8.606;2023-10-09T03:00:05;9.38;;;5.63;;
21955;SDS011;11142;49.930;8.606;2023-10-09T03:02:45;15.23;;;7.13;;
21955;SDS011;11142;49.930;8.606;2023-10-09T03:05:17;11.93;;;6.10;;
21955;SDS011;11142;49.930;8.606;2023-10-09T03:07:47;11.32;;;6.40;;
21955;SDS011;11142;49.930;8.606;2023-10-09T03:10:19;14.15;;;6.82;;
21955;SDS011;11142;49.930;8.606;2023-10-09T03:12:50;14.15;;;5.78;;
21955;SDS011;11142;49.930;8.606;2023-10-09T03:15:19;10.90;;;6.47;;
21955;SDS011;11142;49.930;8.606;2023-10-09T03:17:48;12.82;;;6.57;;
21955;SDS011;11142;49.930;8.606;2023-10-09T03:20:17;15.95;;;6.65;;
21955;SDS011;11142;49.930;8.606;2023-10-09T03:22:45;15.05;;;7.13;;
21955;SDS011;11142;49.930;8.606;2023-10-09T03:25:14;15.23;;;6.28;;
21955;SDS011;11142;49.930;8.606;2023-10-09T03:27:43;16.13;;;6.72;;
21955;SDS011;11142;49.930;8.606;2023-10-09T03:30:14;13.57;;;6.25;;
21955;SDS011;11142;49.930;8.606;2023-10-09T03:32:50;13.05;;;6.80;;
21955;SDS011;11142;49.930;8.606;2023-10-09T03:35:18;15.15;;;6.78;;
21955;SDS011;11142;49.930;8.606;2023-10-09T03:37:53;14.95;;;7.00;;
21955;SDS011;11142;49.930;8.606;2023-10-09T03:40:23;10.93;;;5.85;;
21955;SDS011;11142;49.930;8.606;2023-10-09T03:42:52;14.27;;;6.70;;
21955;SDS011;11142;49.930;8.606;2023-10-09T03:45:22;17.40;;;6.40;;
21955;SDS011;11142;49.930;8.606;2023-10-09T03:47:54;11.77;;;5.95;;
21955;SDS011;11142;49.930;8.606;2023-10-09T03:50:36;12.95;;;6.20;;
21955;SDS011;11142;49.930;8.606;2023-10-09T03:53:05;13.93;;;6.03;;
21955;SDS011;11142;49.930;8.606;2023-10-09T03:55:39;14.15;;;5.70;;
21955;SDS011;11142;49.930;8.606;2023-10-09T03:58:08;14.45;;;6.20;;
21955;SDS011;11142;49.930;8.606;2023-10-09T04:00:40;11.40;;;5.78;;
21955;SDS011;11142;49.930;8.606;2023-10-09T04:03:13;18.08;;;6.18;;
21955;SDS011;11142;49.930;8.606;2023-10-09T04:05:43;16.67;;;6.20;;
21955;SDS011;11142;49.930;8.606;2023-10-09T04:08:12;12.63;;;5.63;;
21955;SDS011;11142;49.930;8.606;2023-10-09T04:10:46;14.98;;;5.78;;
21955;SDS011;11142;49.930;8.606;2023-10-09T04:13:24;12.73;;;5.90;;
21955;SDS011;11142;49.930;8.606;2023-10-09T04:16:02;11.65;;;5.63;;
21955;SDS011;11142;49.930;8.606;2023-10-09T04:18:46;10.40;;;5.25;;
21955;SDS011;11142;49.930;8.606;2023-10-09T04:21:14;12.13;;;5.75;;
21955;SDS011;11142;49.930;8.606;2023-10-09T04:24:01;12.18;;;5.80;;
21955;SDS011;11142;49.930;8.606;2023-10-09T04:26:47;12.27;;;5.63;;
21955;SDS011;11142;49.930;8.606;2023-10-09T04:29:22;11.48;;;5.25;;
21955;SDS011;11142;49.930;8.606;2023-10-09T04:31:55;10.10;;;5.20;;
21955;SDS011;11142;49.930;8.606;2023-10-09T04:34:27;11.82;;;5.28;;
21955;SDS011;11142;49.930;8.606;2023-10-09T04:37:02;13.57;;;5.70;;
21955;SDS011;11142;49.930;8.606;2023-10-09T04:39:50;12.93;;;4.85;;
21955;SDS011;11142;49.930;8.606;2023-10-09T04:42:28;13.73;;;5.25;;
21955;SDS011;11142;49.930;8.606;2023-10-09T04:45:06;12.02;;;5.18;;
21955;SDS011;11142;49.930;8.606;2023-10-09T04:47:47;15.40;;;5.03;;
21955;SDS011;11142;49.930;8.606;2023-10-09T04:50:28;14.32;;;4.57;;
21955;SDS011;11142;49.930;8.606;2023-10-09T04:53:33;17.27;;;5.38;;
21955;SDS011;11142;49.930;8.606;2023-10-09T04:56:10;7.97;;;4.30;;
21955;SDS011;11142;49.930;8.606;2023-10-09T04:58:42;11.65;;;4.57;;
21955;SDS011;11142;49.930;8.606;2023-10-09T05:01:12;11.88;;;4.93;;
21955;SDS011;11142;49.930;8.606;2023-10-09T05:03:43;10.32;;;4.57;;
21955;SDS011;11142;49.930;8.606;2023-10-09T05:06:12;11.73;;;4.53;;
21955;SDS011;11142;49.930;8.606;2023-10-09T05:09:10;15.07;;;4.80;;
21955;SDS011;11142;49.930;8.606;2023-10-09T05:11:42;11.50;;;4.70;;
21955;SDS011;11142;49.930;8.606;2023-10-09T05:17:06;13.18;;;4.30;;
21955;SDS011;11142;49.930;8.606;2023-10-09T05:19:44;13.38;;;4.35;;
21955;SDS011;11142;49.930;8.606;2023-10-09T05:22:42;11.68;;;4.05;;
21955;SDS011;11142;49.930;8.606;2023-10-09T05:25:24;15.52;;;4.53;;
21955;SDS011;11142;49.930;8.606;2023-10-09T05:28:19;10.55;;;4.55;;
21955;SDS011;11142;49.930;8.606;2023-10-09T05:30:58;10.20;;;4.35;;
21955;SDS011;11142;49.930;8.606;2023-10-09T05:33:58;13.38;;;4.45;;
21955;SDS011;11142;49.930;8.606;2023-10-09T05:36:29;10.15;;;3.55;;
21955;SDS011;11142;49.930;8.606;2023-10-09T05:39:02;10.18;;;3.70;;
21955;SDS011;11142;49.930;8.606;2023-10-09T05:41:56;10.80;;;4.22;;
21955;SDS011;11142;49.930;8.606;2023-10-09T05:44:34;12.48;;;4.47;;
21955;SDS011;11142;49.930;8.606;2023-10-09T05:47:20;11.18;;;3.95;;
21955;SDS011;11142;49.930;8.606;2023-10-09T05:50:02;10.20;;;4.43;;
21955;SDS011;11142;49.930;8.606;2023-10-09T05:52:45;18.92;;;4.57;;
21955;SDS011;11142;49.930;8.606;2023-10-09T05:55:43;10.45;;;3.83;;
21955;SDS011;11142;49.930;8.606;2023-10-09T05:58:30;10.18;;;3.83;;
21955;SDS011;11142;49.930;8.606;2023-10-09T06:01:30;12.68;;;4.00;;
21955;SDS011;11142;49.930;8.606;2023-10-09T06:04:15;12.15;;;4.00;;
21955;SDS011;11142;49.930;8.606;2023-10-09T06:06:46;8.40;;;4.35;;
21955;SDS011;11142;49.930;8.606;2023-10-09T06:09:23;13.90;;;4.38;;
21955;SDS011;11142;49.930;8.606;2023-10-09T06:12:11;16.13;;;5.20;;
21955;SDS011;11142;49.930;8.606;2023-10-09T06:14:57;9.57;;;4.35;;
21955;SDS011;11142;49.930;8.606;2023-10-09T06:17:45;11.40;;;4.05;;
21955;SDS011;11142;49.930;8.606;2023-10-09T06:20:17;13.88;;;4.18;;
21955;SDS011;11142;49.930;8.606;2023-10-09T06:23:27;10.73;;;3.72;;
21955;SDS011;11142;49.930;8.606;2023-10-09T06:26:10;11.65;;;4.43;;
21955;SDS011;11142;49.930;8.606;2023-10-09T06:28:51;7.93;;;3.90;;
21955;SDS011;11142;49.930;8.606;2023-10-09T06:31:40;9.27;;;3.78;;
21955;SDS011;11142;49.930;8.606;2023-10-09T06:34:28;9.40;;;3.78;;
21955;SDS011;11142;49.930;8.606;2023-10-09T06:37:02;9.23;;;4.00;;
21955;SDS011;11142;49.930;8.606;2023-10-09T06:39:43;14.65;;;3.85;;
21955;SDS011;11142;49.930;8.606;2023-10-09T06:42:18;14.25;;;4.00;;
21955;SDS011;11142;49.930;8.606;2023-10-09T06:45:01;13.80;;;3.35;;
21955;SDS011;11142;49.930;8.606;2023-10-09T06:47:42;15.93;;;3.95;;
21955;SDS011;11142;49.930;8.606;2023-10-09T06:50:20;14.82;;;3.40;;
21955;SDS011;11142;49.930;8.606;2023-10-09T06:53:14;8.13;;;3.95;;
21955;SDS011;11142;49.930;8.606;2023-10-09T06:55:52;15.20;;;4.15;;
21955;SDS011;11142;49.930;8.606;2023-10-09T06:58:33;9.90;;;3.72;;
21955;SDS011;11142;49.930;8.606;2023-10-09T07:01:09;18.17;;;4.15;;
21955;SDS011;11142;49.930;8.606;2023-10-09T07:04:06;9.50;;;4.03;;
21955;SDS011;11142;49.930;8.606;2023-10-09T07:06:45;9.55;;;3.22;;
21955;SDS011;11142;49.930;8.606;2023-10-09T07:09:18;13.98;;;4.47;;
21955;SDS011;11142;49.930;8.606;2023-10-09T07:11:47;9.63;;;4.10;;
21955;SDS011;11142;49.930;8.606;2023-10-09T07:14:27;13.30;;;4.32;;
21955;SDS011;11142;49.930;8.606;2023-10-09T07:17:14;15.73;;;3.88;;
21955;SDS011;11142;49.930;8.606;2023-10-09T07:20:11;7.50;;;3.47;;
21955;SDS011;11142;49.930;8.606;2023-10-09T07:23:03;11.95;;;3.80;;
21955;SDS011;11142;49.930;8.606;2023-10-09T07:25:48;9.20;;;3.90;;
21955;SDS011;11142;49.930;8.606;2023-10-09T07:28:27;15.48;;;4.05;;
21955;SDS011;11142;49.930;8.606;2023-10-09T07:31:17;13.27;;;3.42;;
21955;SDS011;11142;49.930;8.606;2023-10-09T07:33:56;7.07;;;3.80;;
21955;SDS011;11142;49.930;8.606;2023-10-09T07:36:24;12.75;;;3.85;;
21955;SDS011;11142;49.930;8.606;2023-10-09T07:39:02;13.73;;;3.88;;
21955;SDS011;11142;49.930;8.606;2023-10-09T07:41:40;12.77;;;3.63;;
21955;SDS011;11142;49.930;8.606;2023-10-09T07:44:11;9.50;;;3.75;;
21955;SDS011;11142;49.930;8.606;2023-10-09T07:46:55;11.50;;;3.38;;
21955;SDS011;11142;49.930;8.606;2023-10-09T07:49:40;10.32;;;3.90;;
21955;SDS011;11142;49.930;8.606;2023-10-09T07:52:08;7.18;;;3.60;;
21955;SDS011;11142;49.930;8.606;2023-10-09T07:54:38;8.80;;;3.78;;
21955;SDS011;11142;49.930;8.606;2023-10-09T07:57:16;14.93;;;4.13;;
21955;SDS011;11142;49.930;8.606;2023-10-09T07:59:52;11.65;;;3.80;;
21955;SDS011;11142;49.930;8.606;2023-10-09T08:02:38;9.02;;;3.45;;
21955;SDS011;11142;49.930;8.606;2023-10-09T08:05:08;11.75;;;3.50;;
21955;SDS011;11142;49.930;8.606;2023-10-09T08:07:47;9.80;;;4.03;;
21955;SDS011;11142;49.930;8.606;2023-10-09T08:13:43;8.80;;;3.60;;
21955;SDS011;11142;49.930;8.606;2023-10-09T08:16:23;11.68;;;3.70;;
21955;SDS011;11142;49.930;8.606;2023-10-09T08:18:55;12.45;;;3.50;;
21955;SDS011;11142;49.930;8.606;2023-10-09T08:21:24;8.70;;;3.35;;
21955;SDS011;11142;49.930;8.606;2023-10-09T08:24:07;11.48;;;3.78;;
21955;SDS011;11142;49.930;8.606;2023-10-09T08:26:57;7.53;;;3.17;;
21955;SDS011;11142;49.930;8.606;2023-10-09T08:29:39;12.45;;;4.00;;
21955;SDS011;11142;49.930;8.606;2023-10-09T08:32:13;9.98;;;3.65;;
21955;SDS011;11142;49.930;8.606;2023-10-09T08:35:07;8.55;;;3.60;;
21955;SDS011;11142;49.930;8.606;2023-10-09T08:37:56;9.48;;;3.92;;
21955;SDS011;11142;49.930;8.606;2023-10-09T08:40:31;14.40;;;4.13;;
21955;SDS011;11142;49.930;8.606;2023-10-09T08:43:07;10.02;;;4.40;;
21955;SDS011;11142;49.930;8.606;2023-10-09T08:45:37;16.20;;;3.78;;
21955;SDS011;11142;49.930;8.606;2023-10-09T08:48:07;8.93;;;3.47;;
21955;SDS011;11142;49.930;8.606;2023-10-09T08:50:44;8.88;;;3.65;;
21955;SDS011;11142;49.930;8.606;2023-10-09T08:53:16;12.68;;;3.42;;
21955;SDS011;11142;49.930;8.606;2023-10-09T08:55:45;10.93;;;3.67;;
21955;SDS011;11142;49.930;8.606;2023-10-09T08:58:14;11.20;;;3.42;;
21955;SDS011;11142;49.930;8.606;2023-10-09T09:00:47;9.40;;;3.72;;
21955;SDS011;11142;49.930;8.606;2023-10-09T09:03:17;9.13;;;3.50;;
21955;SDS011;11142;49.930;8.606;2023-10-09T09:05:57;9.93;;;3.35;;
21955;SDS011;11142;49.930;8.606;2023-10-09T09:08:29;7.78;;;3.38;;
21955;SDS011;11142;49.930;8.606;2023-10-09T09:11:03;9.68;;;2.88;;
21955;SDS011;11142;49.930;8.606;2023-10-09T09:13:44;9.75;;;3.75;;
21955;SDS011;11142;49.930;8.606;2023-10-09T09:16:17;8.90;;;3.67;;
21955;SDS011;11142;49.930;8.606;2023-10-09T09:18:50;13.27;;;3.95;;
21955;SDS011;11142;49.930;8.606;2023-10-09T09:21:25;8.65;;;3.65;;
21955;SDS011;11142;49.930;8.606;2023-10-09T09:23:56;9.68;;;4.30;;
21955;SDS011;11142;49.930;8.606;2023-10-09T09:26:35;13.43;;;3.95;;
21955;SDS011;11142;49.930;8.606;2023-10-09T09:29:05;9.98;;;3.28;;
21955;SDS011;11142;49.930;8.606;2023-10-09T09:31:35;14.02;;;3.95;;
21955;SDS011;11142;49.930;8.606;2023-10-09T09:34:05;14.43;;;3.72;;
21955;SDS011;11142;49.930;8.606;2023-10-09T09:36:51;14.18;;;4.10;;
21955;SDS011;11142;49.930;8.606;2023-10-09T09:39:21;16.48;;;4.00;;
21955;SDS011;11142;49.930;8.606;2023-10-09T09:42:11;7.53;;;3.55;;
21955;SDS011;11142;49.930;8.606;2023-10-09T09:44:41;9.35;;;3.72;;
21955;SDS011;11142;49.930;8.606;2023-10-09T09:47:12;8.70;;;3.78;;
21955;SDS011;11142;49.930;8.606;2023-10-09T09:49:51;8.50;;;4.35;;
21955;SDS011;11142;49.930;8.606;2023-10-09T09:52:29;14.98;;;3.70;;
21955;SDS011;11142;49.930;8.606;2023-10-09T09:55:07;16.02;;;4.53;;
21955;SDS011;11142;49.930;8.606;2023-10-09T09:57:41;10.52;;;3.78;;
21955;SDS011;11142;49.930;8.606;2023-10-09T10:00:19;11.23;;;3.70;;
21955;SDS011;11142;49.930;8.606;2023-10-09T10:02:58;9.50;;;3.20;;
21955;SDS011;11142;49.930;8.606;2023-10-09T10:05:29;9.85;;;3.72;;
21955;SDS011;11142;49.930;8.606;2023-10-09T10:08:00;7.90;;;3.42;;
21955;SDS011;11142;49.930;8.606;2023-10-09T10:10:38;14.73;;;3.72;;
21955;SDS011;11142;49.930;8.606;2023-10-09T10:13:17;10.75;;;3.55;;
21955;SDS011;11142;49.930;8.606;2023-10-09T10:15:58;10.43;;;4.22;;
21955;SDS011;11142;49.930;8.606;2023-10-09T10:18:52;10.90;;;3.58;;
21955;SDS011;11142;49.930;8.606;2023-10-09T10:21:26;14.32;;;3.90;;
21955;SDS011;11142;49.930;8.606;2023-10-09T10:24:06;14.80;;;4.20;;
21955;SDS011;11142;49.930;8.606;2023-10-09T10:27:24;13.38;;;3.88;;
21955;SDS011;11142;49.930;8.606;2023-10-09T10:33:03;13.75;;;4.03;;
21955;SDS011;11142;49.930;8.606;2023-10-09T10:35:40;12.90;;;3.92;;
21955;SDS011;11142;49.930;8.606;2023-10-09T10:41:09;15.02;;;3.70;;
21955;SDS011;11142;49.930;8.606;2023-10-09T10:43:43;9.00;;;3.75;;
21955;SDS011;11142;49.930;8.606;2023-10-09T10:46:22;10.95;;;3.20;;
21955;SDS011;11142;49.930;8.606;2023-10-09T10:49:05;8.35;;;3.35;;
21955;SDS011;11142;49.930;8.606;2023-10-09T10:51:47;10.03;;;3.83;;
21955;SDS011;11142;49.930;8.606;2023-10-09T10:54:28;14.82;;;3.88;;
21955;SDS011;11142;49.930;8.606;2023-10-09T10:57:36;11.65;;;4.47;;
21955;SDS011;11142;49.930;8.606;2023-10-09T11:00:18;13.50;;;4.47;;
21955;SDS011;11142;49.930;8.606;2023-10-09T11:03:01;14.75;;;3.88;;
21955;SDS011;11142;49.930;8.606;2023-10-09T11:05:44;12.07;;;4.65;;
21955;SDS011;11142;49.930;8.606;2023-10-09T11:08:18;14.65;;;3.25;;
21955;SDS011;11142;49.930;8.606;2023-10-09T11:10:50;10.18;;;3.55;;
21955;SDS011;11142;49.930;8.606;2023-10-09T11:13:22;13.48;;;4.97;;
21955;SDS011;11142;49.930;8.606;2023-10-09T11:15:58;12.75;;;4.32;;
21955;SDS011;11142;49.930;8.606;2023-10-09T11:18:41;14.18;;;4.22;;
21955;SDS011;11142;49.930;8.606;2023-10-09T11:21:13;13.45;;;4.57;;
21955;SDS011;11142;49.930;8.606;2023-10-09T11:23:58;15.90;;;3.55;;
21955;SDS011;11142;49.930;8.606;2023-10-09T11:26:47;12.43;;;3.92;;
21955;SDS011;11142;49.930;8.606;2023-10-09T11:29:23;14.40;;;5.85;;
21955;SDS011;11142;49.930;8.606;2023-10-09T11:31:59;7.75;;;3.65;;
21955;SDS011;11142;49.930;8.606;2023-10-09T11:34:31;11.63;;;3.50;;
21955;SDS011;11142;49.930;8.606;2023-10-09T11:37:03;10.30;;;4.18;;
21955;SDS011;11142;49.930;8.606;2023-10-09T11:39:39;10.18;;;3.55;;
21955;SDS011;11142;49.930;8.606;2023-10-09T11:42:24;11.25;;;3.67;;
21955;SDS011;11142;49.930;8.606;2023-10-09T11:45:05;15.23;;;3.28;;
21955;SDS011;11142;49.930;8.606;2023-10-09T11:47:46;12.20;;;4.15;;
21955;SDS011;11142;49.930;8.606;2023-10-09T11:50:40;9.50;;;3.28;;
21955;SDS011;11142;49.930;8.606;2023-10-09T11:53:19;15.65;;;3.80;;
21955;SDS011;11142;49.930;8.606;2023-10-09T11:56:00;13.70;;;4.00;;
21955;SDS011;11142;49.930;8.606;2023-10-09T11:58:29;8.07;;;3.53;;
21955;SDS011;11142;49.930;8.606;2023-10-09T12:01:10;9.00;;;3.35;;
21955;SDS011;11142;49.930;8.606;2023-10-09T12:03:44;9.20;;;3.15;;
21955;SDS011;11142;49.930;8.606;2023-10-09T12:06:16;15.10;;;3.85;;
21955;SDS011;11142;49.930;8.606;2023-10-09T12:08:52;12.17;;;3.60;;
21955;SDS011;11142;49.930;8.606;2023-10-09T12:11:20;10.27;;;4.38;;
21955;SDS011;11142;49.930;8.606;2023-10-09T12:13:56;8.52;;;3.60;;
21955;SDS011;11142;49.930;8.606;2023-10-09T12:16:29;13.05;;;3.83;;
21955;SDS011;11142;49.930;8.606;2023-10-09T12:19:00;13.77;;;3.63;;
21955;SDS011;11142;49.930;8.606;2023-10-09T12:21:29;12.50;;;3.38;;
21955;SDS011;11142;49.930;8.606;2023-10-09T12:23:58;11.27;;;3.45;;
21955;SDS011;11142;49.930;8.606;2023-10-09T12:26:28;8.00;;;3.28;;
21955;SDS011;11142;49.930;8.606;2023-10-09T12:29:02;11.18;;;3.10;;
21955;SDS011;11142;49.930;8.606;2023-10-09T12:31:40;16.65;;;3.63;;
21955;SDS011;11142;49.930;8.606;2023-10-09T12:34:12;9.00;;;3.13;;
21955;SDS011;11142;49.930;8.606;2023-10-09T12:36:44;14.88;;;3.28;;
21955;SDS011;11142;49.930;8.606;2023-10-09T12:39:12;12.73;;;3.33;;
21955;SDS011;11142;49.930;8.606;2023-10-09T12:41:45;15.48;;;4.03;;
21955;SDS011;11142;49.930;8.606;2023-10-09T12:44:13;8.43;;;3.00;;
21955;SDS011;11142;49.930;8.606;2023-10-09T12:46:44;10.10;;;3.35;;
21955;SDS011;11142;49.930;8.606;2023-10-09T12:49:19;7.03;;;3.30;;
21955;SDS011;11142;49.930;8.606;2023-10-09T12:51:53;16.63;;;4.05;;
21955;SDS011;11142;49.930;8.606;2023-10-09T12:54:24;9.45;;;3.55;;
21955;SDS011;11142;49.930;8.606;2023-10-09T12:56:55;6.07;;;3.10;;
21955;SDS011;11142;49.930;8.606;2023-10-09T12:59:27;9.32;;;3.08;;
21955;SDS011;11142;49.930;8.606;2023-10-09T13:01:59;15.13;;;3.38;;
21955;SDS011;11142;49.930;8.606;2023-10-09T13:04:30;9.93;;;3.47;;
21955;SDS011;11142;49.930;8.606;2023-10-09T13:07:00;7.05;;;3.05;;
21955;SDS011;11142;49.930;8.606;2023-10-09T13:09:31;11.00;;;3.95;;
21955;SDS011;11142;49.930;8.606;2023-10-09T13:12:10;9.77;;;3.33;;
21955;SDS011;11142;49.930;8.606;2023-10-09T13:14:45;11.07;;;2.90;;
21955;SDS011;11142;49.930;8.606;2023-10-09T13:17:18;13.45;;;3.15;;
21955;SDS011;11142;49.930;8.606;2023-10-09T13:19:49;8.40;;;3.58;;
21955;SDS011;11142;49.930;8.606;2023-10-09T13:22:17;9.63;;;2.67;;
21955;SDS011;11142;49.930;8.606;2023-10-09T13:24:45;11.57;;;3.10;;
21955;SDS011;11142;49.930;8.606;2023-10-09T13:27:15;12.30;;;3.28;;
21955;SDS011;11142;49.930;8.606;2023-10-09T13:29:48;7.03;;;3.33;;
21955;SDS011;11142;49.930;8.606;2023-10-09T13:32:20;9.40;;;3.17;;
21955;SDS011;11142;49.930;8.606;2023-10-09T13:34:48;6.40;;;3.17;;
21955;SDS011;11142;49.930;8.606;2023-10-09T13:37:18;11.13;;;3.15;;
21955;SDS011;11142;49.930;8.606;2023-10-09T13:39:48;8.20;;;3.75;;
21955;SDS011;11142;49.930;8.606;2023-10-09T13:42:20;10.88;;;3.40;;
21955;SDS011;11142;49.930;8.606;2023-10-09T13:44:53;7.88;;;3.35;;
21955;SDS011;11142;49.930;8.606;2023-10-09T13:47:23;7.82;;;3.33;;
21955;SDS011;11142;49.930;8.606;2023-10-09T13:49:58;11.57;;;3.42;;
21955;SDS011;11142;49.930;8.606;2023-10-09T13:52:27;7.80;;;3.05;;
21955;SDS011;11142;49.930;8.606;2023-10-09T13:54:58;12.18;;;3.20;;
21955;SDS011;11142;49.930;8.606;2023-10-09T13:57:42;10.75;;;3.35;;
21955;SDS011;11142;49.930;8.606;2023-10-09T14:00:13;9.25;;;3.50;;
21955;SDS011;11142;49.930;8.606;2023-10-09T14:02:47;8.77;;;3.15;;
21955;SDS011;11142;49.930;8.606;2023-10-09T14:05:18;8.23;;;2.90;;
21955;SDS011;11142;49.930;8.606;2023-10-09T14:07:47;9.45;;;3.53;;
21955;SDS011;11142;49.930;8.606;2023-10-09T14:10:16;7.55;;;3.30;;
21955;SDS011;11142;49.930;8.606;2023-10-09T14:12:45;9.88;;;3.47;;
21955;SDS011;11142;49.930;8.606;2023-10-09T14:15:13;11.85;;;3.20;;
21955;SDS011;11142;49.930;8.606;2023-10-09T14:17:48;8.63;;;3.00;;
21955;SDS011;11142;49.930;8.606;2023-10-09T14:20:23;7.00;;;3.38;;
21955;SDS011;11142;49.930;8.606;2023-10-09T14:22:58;6.72;;;3.20;;
21955;SDS011;11142;49.930;8.606;2023-10-09T14:25:33;7.88;;;3.35;;
21955;SDS011;11142;49.930;8.606;2023-10-09T14:28:04;6.55;;;3.05;;
21955;SDS011;11142;49.930;8.606;2023-10-09T14:30:36;7.00;;;3.10;;
21955;SDS011;11142;49.930;8.606;2023-10-09T14:33:11;7.60;;;2.80;;
21955;SDS011;11142;49.930;8.606;2023-10-09T14:35:40;8.52;;;2.95;;
21955;SDS011;11142;49.930;8.606;2023-10-09T14:38:09;12.05;;;3.45;;
21955;SDS011;11142;49.930;8.606;2023-10-09T14:40:42;8.48;;;2.70;;
21955;SDS011;11142;49.930;8.606;2023-10-09T14:43:12;10.68;;;2.92;;
21955;SDS011;11142;49.930;8.606;2023-10-09T14:45:47;7.05;;;3.45;;
21955;SDS011;11142;49.930;8.606;2023-10-09T14:48:18;7.32;;;2.90;;
21955;SDS011;11142;49.930;8.606;2023-10-09T14:50:48;9.73;;;2.80;;
21955;SDS011;11142;49.930;8.606;2023-10-09T14:53:20;15.90;;;3.95;;
21955;SDS011;11142;49.930;8.606;2023-10-09T14:55:54;6.53;;;3.05;;
21955;SDS011;11142;49.930;8.606;2023-10-09T14:58:22;8.98;;;3.20;;
21955;SDS011;11142;49.930;8.606;2023-10-09T15:00:52;7.50;;;3.15;;
21955;SDS011;11142;49.930;8.606;2023-10-09T15:03:22;6.35;;;2.97;;
21955;SDS011;11142;49.930;8.606;2023-10-09T15:05:51;8.15;;;3.03;;
21955;SDS011;11142;49.930;8.606;2023-10-09T15:08:21;6.72;;;2.97;;
21955;SDS011;11142;49.930;8.606;2023-10-09T15:10:50;7.47;;;3.17;;
21955;SDS011;11142;49.930;8.606;2023-10-09T15:13:24;8.77;;;2.72;;
21955;SDS011;11142;49.930;8.606;2023-10-09T15:15:54;9.00;;;3.47;;
21955;SDS011;11142;49.930;8.606;2023-10-09T15:18:25;12.00;;;3.72;;
21955;SDS011;11142;49.930;8.606;2023-10-09T15:20:53;6.78;;;2.92;;
21955;SDS011;11142;49.930;8.606;2023-10-09T15:23:21;6.10;;;3.15;;
21955;SDS011;11142;49.930;8.606;2023-10-09T15:25:49;6.32;;;2.67;;
21955;SDS011;11142;49.930;8.606;2023-10-09T15:28:19;12.02;;;3.80;;
21955;SDS011;11142;49.930;8.606;2023-10-09T15:30:48;9.77;;;3.28;;
21955;SDS011;11142;49.930;8.606;2023-10-09T15:33:17;9.25;;;3.30;;
21955;SDS011;11142;49.930;8.606;2023-10-09T15:35:48;7.50;;;3.53;;
21955;SDS011;11142;49.930;8.606;2023-10-09T15:38:17;9.73;;;3.22;;
21955;SDS011;11142;49.930;8.606;2023-10-09T15:40:46;9.25;;;2.85;;